This is the latest recevied weather packets stored in our database for station/object N8QQQ. If no packets are shown the sender has not sent any weather packets the latest 1 day(s).
| Time | Temp. | Humidity | Pressure | Rain* | Wind** | Luminosity | Snow |
|---|---|---|---|---|---|---|---|
| 1778001234 | 5.56° C | 52% | 1005.1 hPa | 0 mm | 1.34 m/s, 244° | 114 W/m² | - |
| 1778000930 | 5.56° C | 49% | 1005 hPa | 0 mm | 1.34 m/s, 298° | 152 W/m² | - |
| 1778000628 | 5° C | 52% | 1005 hPa | 0 mm | 2.24 m/s, 313° | 171 W/m² | - |
| 1778000323 | 5.56° C | 51% | 1004.9 hPa | 0 mm | 1.34 m/s, 243° | 188 W/m² | - |
| 1778000019 | 5° C | 53% | 1005.1 hPa | 0 mm | 1.79 m/s, 247° | 202 W/m² | - |
| 1777999715 | 5° C | 53% | 1005.1 hPa | 0 mm | 0.89 m/s, 276° | 146 W/m² | - |
| 1777999411 | 5.56° C | 52% | 1004.9 hPa | 0 mm | 1.34 m/s, 262° | 132 W/m² | - |
| 1777999110 | 5.56° C | 51% | 1004.9 hPa | 0 mm | 0.89 m/s, 308° | 239 W/m² | - |
| 1777998808 | 5.56° C | 51% | 1004.7 hPa | 0 mm | 2.68 m/s, 337° | 180 W/m² | - |
| 1777998506 | 5° C | 52% | 1004.9 hPa | 0 mm | 3.13 m/s, 338° | 726 W/m² | - |
| 1777998202 | 5.56° C | 53% | 1005.2 hPa | 0 mm | 0.89 m/s, 233° | 195 W/m² | - |
| 1777997899 | 5.56° C | 51% | 1004.9 hPa | 0 mm | 2.68 m/s, 355° | 805 W/m² | - |
| 1777997596 | 6.11° C | 51% | 1004.9 hPa | 0 mm | 1.79 m/s, 261° | 202 W/m² | - |
| 1777997294 | 5.56° C | 53% | 1004.7 hPa | 0 mm | 1.79 m/s, 353° | 673 W/m² | - |
| 1777996992 | 5.56° C | 53% | 1005.1 hPa | 0 mm | 4.02 m/s, 325° | 507 W/m² | - |
| 1777996688 | 5° C | 58% | 1005 hPa | 0 mm | 0.89 m/s, 9° | 669 W/m² | - |
| 1777996383 | 5.56° C | 58% | 1005 hPa | 0 mm | 1.34 m/s, 263° | 162 W/m² | - |
| 1777996080 | 4.44° C | 58% | 1004.9 hPa | 0 mm | 1.79 m/s, 288° | 262 W/m² | - |
| 1777995777 | 5° C | 58% | 1005 hPa | 0 mm | 2.24 m/s, 321° | 139 W/m² | - |
| 1777995473 | 5.56° C | 56% | 1004.9 hPa | 0 mm | 1.79 m/s, 323° | 721 W/m² | - |
| 1777995170 | 5° C | 57% | 1004.6 hPa | 0 mm | 0.89 m/s, 262° | 231 W/m² | - |
| 1777994867 | 4.44° C | 59% | 1004.7 hPa | 0 mm | 1.79 m/s, 291° | 652 W/m² | - |
| 1777994564 | 4.44° C | 58% | 1004.7 hPa | 0 mm | 1.79 m/s, 300° | 151 W/m² | - |
| 1777994258 | 4.44° C | 62% | 1004.7 hPa | 0 mm | 1.79 m/s, 260° | 237 W/m² | - |
| 1777993956 | 3.89° C | 64% | 1004.7 hPa | 0 mm | 0.89 m/s, 256° | 117 W/m² | - |
* Rain latest hour (hover to see other rain measurements)
** Current wind speed in m/s (hover to see current wind gust speed)